»·PEaware :: SWA4183 KSFO-KLAS

SWA4183 :: KSFO-KLAS

FLIGHT INFORMATION

Flight Status: Arrived
Operator:
Southwest Airlines
More flights by this operator :: More flights under this callsign
Pilot: Cody B. (17747)
Aircraft: BOEING 737-800
(B738)
More flights by this aircraft type
Origin: KSFO San Francisco Intl
United States
Destination: KLAS McCarran Intl
United States
More flights between these airports :: More routes between these airports
Route: +SSTIK3 NTELL Q162 ESSAA BTY SUNST4
File this flight plan on PilotEdge
Remarks:
Altitude:
(Current/Filed)
35,000ft
Speed:
(Current/Filed)
464kts
Departed: 21-Jul-18 02:10 PM
Arrived: 21-Jul-18 03:38 PM
Distance/Time
Traveled:
359nm/1:28
Distance/Time
To Go:
Arrived

Flight Plot

Page will automatically refresh every two minutes.

Flight plan parsing failed; only flown route is shown


Map Options




Map Legend


Flown Route
Filed Route
Departure Airport
Arrival Airport
Navaid (VOR, NDB)
Fix

Horizontal Profiles

Position Reports

Time Latitude Longitude Heading Altitude Ground
Speed
21-Jul-18 12:57 37.612636 -122.384669 6 21ft 0kts
21-Jul-18 12:58 37.612636 -122.384669 6 21ft 0kts
21-Jul-18 12:59 37.612636 -122.384669 6 21ft 0kts
21-Jul-18 13:00 37.612636 -122.384669 6 21ft 0kts
21-Jul-18 13:01 37.612636 -122.384669 6 21ft 0kts
21-Jul-18 13:02 37.612636 -122.384669 6 21ft 0kts
21-Jul-18 13:03 37.612636 -122.384669 6 21ft 0kts
21-Jul-18 13:04 37.612636 -122.384669 6 21ft 0kts
21-Jul-18 13:05 37.612636 -122.384669 6 21ft 0kts
21-Jul-18 13:06 37.612636 -122.384669 6 21ft 0kts
21-Jul-18 13:07 37.612636 -122.384669 6 21ft 0kts
21-Jul-18 13:08 37.612636 -122.384669 6 21ft 0kts
21-Jul-18 13:09 37.612636 -122.384669 6 21ft 0kts
21-Jul-18 13:10 37.612636 -122.384669 6 21ft 0kts
21-Jul-18 13:11 37.612636 -122.384669 6 21ft 0kts
21-Jul-18 13:12 37.612636 -122.384669 6 21ft 0kts
21-Jul-18 13:13 37.612636 -122.384669 6 21ft 0kts
21-Jul-18 13:14 37.612636 -122.384669 6 21ft 0kts
21-Jul-18 13:15 37.612636 -122.384669 6 21ft 0kts
21-Jul-18 13:16 37.612636 -122.384669 6 21ft 0kts
21-Jul-18 13:17 37.612636 -122.384669 6 21ft 0kts
21-Jul-18 13:18 37.612636 -122.384669 6 21ft 0kts
21-Jul-18 13:19 37.612636 -122.384669 6 21ft 0kts
21-Jul-18 13:20 37.612636 -122.384669 6 21ft 0kts
21-Jul-18 13:21 37.612636 -122.384669 6 21ft 0kts
21-Jul-18 13:22 37.612636 -122.384669 6 21ft 0kts
21-Jul-18 13:23 37.612636 -122.384669 6 21ft 0kts
21-Jul-18 13:24 37.612636 -122.384669 6 21ft 0kts
21-Jul-18 13:25 37.612636 -122.384669 6 21ft 0kts
21-Jul-18 13:26 37.612636 -122.384669 6 21ft 0kts
21-Jul-18 13:27 37.612636 -122.384669 6 21ft 0kts
21-Jul-18 13:28 37.612636 -122.384669 6 21ft 0kts
21-Jul-18 13:29 37.612636 -122.384669 6 21ft 0kts
21-Jul-18 13:30 37.612636 -122.384669 6 21ft 0kts
21-Jul-18 13:31 37.612636 -122.384669 6 21ft 0kts
21-Jul-18 13:32 37.612636 -122.384669 6 21ft 0kts
21-Jul-18 13:33 37.612636 -122.384669 6 21ft 0kts
21-Jul-18 13:34 37.612636 -122.384669 6 21ft 0kts
21-Jul-18 13:35 37.612636 -122.384669 6 21ft 0kts
21-Jul-18 13:36 37.612636 -122.384669 6 21ft 0kts
21-Jul-18 13:37 37.612636 -122.384669 6 21ft 0kts
21-Jul-18 13:38 37.612636 -122.384669 6 21ft 0kts
21-Jul-18 13:39 37.612636 -122.384669 6 21ft 0kts
21-Jul-18 13:40 37.612636 -122.384669 6 21ft 0kts
21-Jul-18 13:41 37.612636 -122.384669 6 21ft 0kts
21-Jul-18 13:42 37.612636 -122.384669 6 21ft 0kts
21-Jul-18 13:43 37.612636 -122.384669 6 21ft 0kts
21-Jul-18 13:44 37.612636 -122.384669 6 21ft 0kts
21-Jul-18 13:45 37.612636 -122.384669 6 21ft 0kts
21-Jul-18 13:46 37.612636 -122.384669 6 21ft 0kts
21-Jul-18 13:47 37.612636 -122.384669 6 21ft 0kts
21-Jul-18 13:48 37.612636 -122.384669 6 21ft 0kts
21-Jul-18 13:49 37.612636 -122.384669 6 21ft 0kts
21-Jul-18 13:50 37.612636 -122.384669 6 21ft 0kts
21-Jul-18 13:51 37.612636 -122.384669 6 21ft 0kts
21-Jul-18 13:52 37.612636 -122.384669 6 21ft 0kts
21-Jul-18 13:53 37.612636 -122.384669 6 21ft 0kts
21-Jul-18 13:54 37.612636 -122.384669 6 21ft 0kts
21-Jul-18 13:55 37.612636 -122.384669 6 21ft 0kts
21-Jul-18 13:56 37.612636 -122.384669 6 21ft 0kts
21-Jul-18 13:57 37.612636 -122.384669 6 21ft 0kts
21-Jul-18 13:58 37.612231 -122.384725 6 21ft 2kts
21-Jul-18 13:59 37.611664 -122.384938 35 20ft 2kts
21-Jul-18 14:00 37.611308 -122.385523 71 21ft 2kts
21-Jul-18 14:01 37.611299 -122.386271 108 21ft 2kts
21-Jul-18 14:02 37.611389 -122.386522 119 21ft 0kts
21-Jul-18 14:03 37.611389 -122.386522 119 21ft 0kts
21-Jul-18 14:04 37.611265 -122.386217 117 21ft 4kts
21-Jul-18 14:05 37.610611 -122.384651 118 20ft 0kts
21-Jul-18 14:06 37.610261 -122.384164 160 20ft 5kts
21-Jul-18 14:07 37.608651 -122.384274 120 21ft 4kts
21-Jul-18 14:08 37.608339 -122.383543 117 20ft 0kts
21-Jul-18 14:09 37.608259 -122.383352 117 20ft 2kts
21-Jul-18 14:10 37.610186 -122.381419 27 21ft 40kts
21-Jul-18 14:11 37.644330 -122.357616 22 1177ft 182kts
21-Jul-18 14:12 37.686554 -122.376480 266 3244ft 204kts
21-Jul-18 14:13 37.643347 -122.424343 193 5638ft 243kts
21-Jul-18 14:14 37.576063 -122.445160 196 8256ft 259kts
21-Jul-18 14:15 37.502510 -122.460925 167 10345ft 288kts
21-Jul-18 14:16 37.441529 -122.394315 127 12243ft 320kts
21-Jul-18 14:17 37.399370 -122.297799 105 14535ft 335kts
21-Jul-18 14:18 37.379255 -122.185900 105 16710ft 344kts
21-Jul-18 14:19 37.356802 -122.069778 106 18735ft 353kts
21-Jul-18 14:20 37.333233 -121.950629 106 20568ft 363kts
21-Jul-18 14:21 37.308494 -121.826957 106 22260ft 373kts
21-Jul-18 14:22 37.282797 -121.699717 106 23714ft 385kts
21-Jul-18 14:23 37.256334 -121.569459 107 25239ft 391kts
21-Jul-18 14:24 37.229293 -121.437209 108 26692ft 395kts
21-Jul-18 14:25 37.202392 -121.306671 109 27916ft 401kts
21-Jul-18 14:26 37.174478 -121.172282 109 28958ft 410kts
21-Jul-18 14:27 37.145664 -121.034160 109 30296ft 408kts
21-Jul-18 14:28 37.119318 -120.908604 110 31467ft 404kts
21-Jul-18 14:29 37.090907 -120.773990 110 32604ft 399kts
21-Jul-18 14:30 37.062510 -120.640350 110 33099ft 396kts
21-Jul-18 14:31 37.034118 -120.507545 110 33368ft 396kts
21-Jul-18 14:32 37.005725 -120.375475 111 33676ft 392kts
21-Jul-18 14:33 36.978158 -120.247951 112 34170ft 383kts
21-Jul-18 14:34 36.950827 -120.122179 112 34777ft 370kts
21-Jul-18 14:35 36.923626 -119.998045 112 34987ft 376kts
21-Jul-18 14:36 36.911938 -119.868130 83 35018ft 413kts
21-Jul-18 14:37 36.951597 -119.733448 75 35002ft 432kts
21-Jul-18 14:38 36.995219 -119.596797 75 34997ft 444kts
21-Jul-18 14:39 37.040369 -119.455483 74 34997ft 455kts
21-Jul-18 14:40 37.085953 -119.313296 75 34997ft 463kts
21-Jul-18 14:41 37.133505 -119.165532 74 34996ft 462kts
21-Jul-18 14:42 37.181337 -119.017337 74 35198ft 462kts
21-Jul-18 14:43 37.229622 -118.868156 74 35340ft 462kts
21-Jul-18 14:44 37.276957 -118.718616 82 35323ft 461kts
21-Jul-18 14:45 37.292394 -118.565628 90 35088ft 456kts
21-Jul-18 14:46 37.305914 -118.407180 90 35085ft 458kts
21-Jul-18 14:47 37.319352 -118.254058 90 35088ft 457kts
21-Jul-18 14:48 37.333489 -118.095510 90 35092ft 458kts
21-Jul-18 14:49 37.347805 -117.936748 90 35089ft 458kts
21-Jul-18 14:50 37.342957 -117.780764 103 35094ft 445kts
21-Jul-18 14:51 37.328080 -117.626273 102 35088ft 446kts
21-Jul-18 14:52 37.313821 -117.471683 102 35092ft 446kts
21-Jul-18 14:53 37.292778 -117.322272 129 35131ft 422kts
21-Jul-18 14:54 37.228239 -117.201961 128 35226ft 423kts
21-Jul-18 14:55 37.158506 -117.083965 131 35215ft 422kts
21-Jul-18 14:56 37.087564 -116.966810 131 35105ft 422kts
21-Jul-18 14:57 36.995900 -116.881647 153 35109ft 413kts
21-Jul-18 14:58 36.896294 -116.812719 153 35104ft 412kts
21-Jul-18 14:59 36.798873 -116.740195 139 34254ft 420kts
21-Jul-18 15:00 36.719769 -116.630829 134 33277ft 425kts
21-Jul-18 15:01 36.641377 -116.519322 134 30514ft 426kts
21-Jul-18 15:02 36.565949 -116.412180 133 28025ft 405kts
21-Jul-18 15:03 36.493171 -116.309451 133 25652ft 394kts
21-Jul-18 15:04 36.422034 -116.209451 132 23296ft 382kts
21-Jul-18 15:05 36.353179 -116.112875 132 21020ft 371kts
21-Jul-18 15:06 36.285918 -116.018736 132 18846ft 360kts
21-Jul-18 15:07 36.220874 -115.927907 132 16610ft 353kts
21-Jul-18 15:08 36.176571 -115.826854 112 15330ft 310kts
21-Jul-18 15:09 36.145453 -115.729938 112 14372ft 304kts
21-Jul-18 15:10 36.114367 -115.633439 112 13457ft 300kts
21-Jul-18 15:11 36.083589 -115.538105 112 12542ft 297kts
21-Jul-18 15:12 36.054197 -115.447296 113 11668ft 262kts
21-Jul-18 15:13 36.028422 -115.360847 99 10876ft 275kts
21-Jul-18 15:14 36.021893 -115.270040 96 9778ft 271kts
21-Jul-18 15:15 36.015860 -115.180267 95 8853ft 255kts
21-Jul-18 15:16 36.020018 -115.098086 42 8100ft 245kts
21-Jul-18 15:17 36.080512 -115.064442 30 6764ft 241kts
21-Jul-18 15:18 36.136989 -115.025111 31 5506ft 222kts
21-Jul-18 15:19 36.188702 -114.989836 31 5481ft 214kts
21-Jul-18 15:20 36.220719 -115.022067 238 5542ft 210kts
21-Jul-18 15:21 36.194646 -115.087030 240 5026ft 212kts
21-Jul-18 15:22 36.147499 -115.130128 202 4093ft 204kts
21-Jul-18 15:23 36.099072 -115.156667 204 3243ft 198kts
21-Jul-18 15:24 36.052874 -115.184576 201 3889ft 177kts
21-Jul-18 15:25 36.008038 -115.225000 215 4192ft 209kts
21-Jul-18 15:26 35.964106 -115.229650 109 4065ft 193kts
21-Jul-18 15:27 35.954222 -115.164275 101 4364ft 197kts
21-Jul-18 15:28 35.989354 -115.116827 31 5029ft 211kts
21-Jul-18 15:29 36.041010 -115.082464 31 5027ft 211kts
21-Jul-18 15:30 36.091671 -115.047890 31 5094ft 209kts
21-Jul-18 15:31 36.142807 -115.013252 31 5081ft 212kts
21-Jul-18 15:32 36.194158 -114.978228 31 5076ft 204kts
21-Jul-18 15:33 36.243145 -114.975701 305 5146ft 205kts
21-Jul-18 15:34 36.260149 -115.034426 222 5163ft 175kts
21-Jul-18 15:35 36.214137 -115.061102 210 5046ft 189kts
21-Jul-18 15:36 36.180613 -115.088332 210 3887ft 160kts
21-Jul-18 15:37 36.146164 -115.117839 214 3260ft 148kts
21-Jul-18 15:38 36.104685 -115.153545 199 2349ft 155kts
21-Jul-18 15:39 36.084166 -115.164839 183 2149ft 19kts
21-Jul-18 15:40 36.082923 -115.164794 173 2149ft 1kts
21-Jul-18 15:41 36.081831 -115.163754 118 2149ft 10kts
21-Jul-18 15:42 36.081621 -115.161932 90 2149ft 2kts
21-Jul-18 15:43 36.081624 -115.158983 89 2149ft 11kts
21-Jul-18 15:44 36.081545 -115.155454 109 2149ft 8kts
21-Jul-18 15:45 36.079197 -115.153614 155 2149ft 9kts
21-Jul-18 15:46 36.078799 -115.151508 93 2149ft 7kts
21-Jul-18 15:47 36.078602 -115.148360 95 2149ft 6kts
21-Jul-18 15:48 36.079330 -115.147560 335 2149ft 5kts
21-Jul-18 15:49 36.079728 -115.147472 53 2149ft 1kts
21-Jul-18 15:50 36.079923 -115.147121 56 2149ft 0kts
21-Jul-18 15:51 36.079923 -115.147122 56 2149ft 0kts
21-Jul-18 15:52 36.079923 -115.147122 56 2149ft 0kts
21-Jul-18 15:53 36.079923 -115.147122 56 2149ft 0kts

Navigation Log

Ident Type
Flight plan parsing failed, navigation log unavailable